Annette Island, AK

5:47 PM AKDT on July 27, 2016 (GMT -0800)
Annette Island | | Change Station

Elev 112 ft 55.04 °N, 131.57 °W | Updated 54 minutes ago

Overcast
Overcast
66 °F
Feels Like 66 °F
N
6
Wind Variable Wind from SW

Today
High -- | Low -- °F
--% Chance of Precip.
Yesterday
High -- | Low -- °F
Precip. -- in
Pressure 30.25 in
Visibility 10.0 miles
Clouds Mostly Cloudy 5000 ft
Mostly Cloudy 8000 ft
Overcast 11000 ft
Dew Point 58 °F
Humidity 75%
Rainfall 0.01 in
Snow Depth Not available.
4:47 AM 8:56 PM
Last Quarter, 37% visible
METAR PANT 280053Z 23005KT 10SM BKN050 BKN080 OVC110 19/14 A3024 RMK AO2 SLP242 T01890144
Pressure 30.25 in
Visibility 10.0 miles
Clouds Mostly Cloudy 5000 ft
Mostly Cloudy 8000 ft
Overcast 11000 ft
Dew Point 58 °F
Humidity 75%
Rainfall 0.01 in
Snow Depth Not available.
4:47 AM 8:56 PM
Last Quarter, 37% visible
METAR PANT 280053Z 23005KT 10SM BKN050 BKN080 OVC110 19/14 A3024 RMK AO2 SLP242 T01890144

10-Day Weather Forecast

Almanac

Astronomy

Jul. 27, 2016 Rise Set
Actual Time
Civil Twilight
Nautical Twilight
Astronomical Twilight
Moon
Length of Visible Light
Length of Day
Tomorrow will be .
, % of the Moon is Illuminated

Today's Extremes

State Highs State Lows

Community

WunderPhotos

Upload Photos

1,928,005 photos uploaded!

WunderBlog® & News

Nearby

Air Quality

  Air Quality AQ Index Pollutant
Not available.

Snow Depth

Station Depth Elevation

Earthquake Activity

City Distance Mag. Time & Date
Minimum magnitude displayed is 2.5.

Coastal Water Temperatures

Place Temperature

Stations

Nearby Weather Stations

Station Location Temp. Windchill Dew Point Humidity Wind Precip. Elev Updated Type
                   

Watches & Warnings

There are currently no watches in effect.